KSAC

Sacramento Executive Airport

Sacramento, California, USA
METAR KSAC 260353Z 21005KT 10SM FEW075 15/11 A3008 RMK AO2 SLP186 T01500111
Observed Flight Rules
May-26 @ 03:53 UTC (26 minutes ago) Visual Flight Rules
Wind Visibility Clouds
210° at 5 knots 10 miles
  • Few at 7,500' AGL
Temperatures Readings
Current 15°C / 59°F
Dewpoint 11°C / 52°F
Humidity 77%
Altimeter 30.08" Hg
Pressure 1018.6 hPa
Elevation 11
METAR KSAC 260353Z 21005KT 10SM FEW075 15/11 A3008 RMK AO2 SLP186 T01500111
Observed Flight Rules
May-26 @ 03:53 UTC
(26 minutes ago)
VFR
Wind Visibility
210° at 5 knots 10 miles
Clouds
  • Few at 7,500' AGL
Temperature Dewpoint
15°C / 59°F 11°C / 52°F
Humidity Altimeter Pressure
77% 30.08" Hg 1018.6 hPa